Southbury, Connecticut
Current Conditions -  °F | °C
As of 1:45 PM on Wednesday 26 Nov 2014 (Local Time) from KOXC Reporting Station
Light Snow Light Snow  
Wind Chill: 25°   Ceiling: 400
Heat Index: 34°   Visibility: 0.75mi
Dew Point: 27°   Wind: 12mph
Humidity: 75%   Direction: 40°NE
Pressure: 29.99"   Gusts: 18mph
Location:  41.48°N, 73.21°W
Report Text: KOXC 261845Z 04010G16KT 3/4SM 1/2V1 -SN BR OVC004 01/M03 A2999
Loading
Personal Weather Stations






























Interactive Weather Map New forecast layout! Learn more

10-Day Weather Forecast

Advertisements
Track Severe Weather on mobile